Terminal Aerodrome Forecast
Issued by NWS

Home | Current Version | Previous Version | Text Only | Print | Product List | Glossary On
Versions: 1 2 3 4 5 6 7 8 9 10 11 12
042
FTUS45 KVEF 201122
TAFEED
TAF
KEED 201122Z 2012/2112 VRB06KT P6SM SCT130
     FM201800 19011KT P6SM SCT130
     FM210100 22008KT P6SM BKN120 PROB30 2101/2104 VRB15G25KT -TSRA
      BKN110CB
     FM210400 24005KT P6SM -SHRA BKN110=

USA.gov is the U.S. government's official web portal to all federal, state and local government web resources and services.